createdAt,value
2018-06-13T00:00:42.041Z,99.90
2018-06-13T00:03:11.157Z,99.90
2018-06-13T00:05:40.556Z,99.90
2018-06-13T00:08:09.732Z,99.90
2018-06-13T00:10:38.904Z,99.90
2018-06-13T00:13:08.199Z,99.90
2018-06-13T00:15:37.328Z,99.90
2018-06-13T00:18:07.496Z,99.90
2018-06-13T00:20:36.668Z,99.80
2018-06-13T00:23:05.840Z,99.80
2018-06-13T00:25:34.936Z,99.80
2018-06-13T00:28:04.160Z,99.30
2018-06-13T00:30:33.308Z,99.60
2018-06-13T00:33:02.452Z,99.00
2018-06-13T00:35:31.860Z,99.50
2018-06-13T00:38:00.960Z,99.80
2018-06-13T00:40:30.113Z,99.40
2018-06-13T00:42:59.220Z,99.40
2018-06-13T00:45:28.404Z,99.20
2018-06-13T00:47:57.588Z,99.40
2018-06-13T00:50:26.792Z,99.30
2018-06-13T00:52:55.936Z,99.00
2018-06-13T00:55:25.045Z,99.10
2018-06-13T00:57:54.484Z,98.40
2018-06-13T01:00:23.604Z,98.90
2018-06-13T01:02:52.728Z,99.40
2018-06-13T01:05:21.864Z,99.20
2018-06-13T01:07:50.971Z,99.30
2018-06-13T01:10:20.440Z,99.10
2018-06-13T01:12:49.970Z,99.20
2018-06-13T01:15:19.096Z,98.40
2018-06-13T01:17:48.220Z,98.70
2018-06-13T01:20:17.600Z,99.20
2018-06-13T01:22:46.780Z,99.10
2018-06-13T01:25:15.904Z,98.70
2018-06-13T01:27:45.021Z,99.00
2018-06-13T01:30:14.097Z,99.10
2018-06-13T01:32:43.232Z,99.10
2018-06-13T01:35:12.808Z,99.30
2018-06-13T01:37:41.924Z,99.50
2018-06-13T01:40:11.060Z,99.10
2018-06-13T01:42:40.156Z,99.30
2018-06-13T01:45:09.293Z,98.80
2018-06-13T01:47:38.439Z,99.50
2018-06-13T01:50:07.556Z,99.20
2018-06-13T01:52:37.272Z,99.40
2018-06-13T01:55:06.404Z,99.20
2018-06-13T01:57:35.660Z,99.30
2018-06-13T02:00:05.576Z,99.80
2018-06-13T02:02:34.798Z,99.70
2018-06-13T02:05:03.996Z,99.50
2018-06-13T02:07:33.160Z,99.60
2018-06-13T02:10:02.273Z,99.90
2018-06-13T02:12:31.704Z,99.90
2018-06-13T02:15:00.800Z,99.90
2018-06-13T02:17:29.905Z,99.90
2018-06-13T02:19:59.137Z,99.90
2018-06-13T02:22:28.256Z,99.90
2018-06-13T02:24:57.588Z,99.90
2018-06-13T02:27:27.026Z,99.90
2018-06-13T02:29:56.076Z,99.90
2018-06-13T02:32:25.176Z,99.90
2018-06-13T02:34:54.325Z,99.90
2018-06-13T02:37:23.532Z,99.90
2018-06-13T02:39:52.769Z,99.90
2018-06-13T02:42:22.532Z,99.90
2018-06-13T02:44:51.596Z,99.90
2018-06-13T02:47:20.749Z,99.90
2018-06-13T02:49:50.292Z,99.90
2018-06-13T02:52:19.385Z,99.90
2018-06-13T02:54:48.469Z,99.90
2018-06-13T02:57:17.560Z,99.90
2018-06-13T02:59:46.632Z,99.90
2018-06-13T03:02:15.952Z,99.90
2018-06-13T03:04:45.213Z,99.90
2018-06-13T03:07:14.333Z,99.90
2018-06-13T03:09:43.478Z,99.90
2018-06-13T03:12:12.765Z,99.90
2018-06-13T03:14:42.148Z,99.90
2018-06-13T03:17:11.307Z,99.90
2018-06-13T03:19:40.627Z,99.90
2018-06-13T03:22:09.772Z,99.90
2018-06-13T03:24:38.908Z,99.90
2018-06-13T03:27:08.328Z,99.90
2018-06-13T03:29:37.496Z,99.90
2018-06-13T03:32:06.687Z,99.90
2018-06-13T03:36:05.492Z,99.90
2018-06-13T03:38:34.842Z,99.90
2018-06-13T03:41:03.991Z,99.90
2018-06-13T03:43:33.274Z,99.90
2018-06-13T03:46:02.348Z,99.90
2018-06-13T03:48:31.429Z,99.90
2018-06-13T03:51:00.633Z,99.90
2018-06-13T03:53:29.800Z,99.90
2018-06-13T03:55:58.888Z,99.90
2018-06-13T03:58:27.992Z,99.90
2018-06-13T04:00:58.033Z,99.90
2018-06-13T04:03:27.913Z,99.90
2018-06-13T04:05:57.013Z,99.90
2018-06-13T04:08:26.189Z,99.90
2018-06-13T04:10:55.570Z,99.90
2018-06-13T04:13:25.404Z,99.90
2018-06-13T04:15:54.573Z,99.90
2018-06-13T04:18:23.624Z,99.90
2018-06-13T04:20:52.996Z,99.90
2018-06-13T04:23:22.144Z,99.90
2018-06-13T04:25:51.305Z,99.90
2018-06-13T04:28:20.408Z,99.90
2018-06-13T04:30:49.532Z,99.90
2018-06-13T04:33:18.728Z,99.90
2018-06-13T04:35:48.196Z,99.90
2018-06-13T04:38:17.489Z,99.90
2018-06-13T04:40:46.627Z,99.90
2018-06-13T04:43:16.260Z,99.90
2018-06-13T04:45:45.389Z,99.90
2018-06-13T04:48:14.504Z,99.90
2018-06-13T04:50:44.136Z,99.90
2018-06-13T04:53:13.256Z,99.90
2018-06-13T04:55:42.532Z,99.80
2018-06-13T04:58:11.681Z,99.40
2018-06-13T05:00:41.086Z,99.50
2018-06-13T05:03:11.572Z,99.70
2018-06-13T05:05:41.144Z,99.30
2018-06-13T05:08:10.240Z,99.00
2018-06-13T05:10:40.029Z,98.80
2018-06-13T05:13:09.134Z,97.90
2018-06-13T05:15:39.080Z,98.40
2018-06-13T05:18:09.625Z,97.90
2018-06-13T05:20:38.716Z,98.00
2018-06-13T05:23:08.316Z,98.50
2018-06-13T05:25:38.178Z,99.00
2018-06-13T05:28:07.328Z,99.50
2018-06-13T05:30:36.396Z,98.90
2018-06-13T05:33:06.549Z,98.80
2018-06-13T05:35:36.683Z,98.70
2018-06-13T05:38:06.762Z,98.50
2018-06-13T05:40:36.476Z,98.80
2018-06-13T05:43:06.684Z,97.90
2018-06-13T05:45:37.223Z,98.00
2018-06-13T05:48:07.067Z,97.90
2018-06-13T05:50:36.985Z,97.80
2018-06-13T05:53:06.962Z,97.20
2018-06-13T05:55:37.210Z,97.30
2018-06-13T05:58:07.132Z,97.50
2018-06-13T06:00:37.416Z,97.00
2018-06-13T06:03:06.825Z,96.90
2018-06-13T06:05:36.187Z,96.20
2018-06-13T06:08:05.944Z,95.40
2018-06-13T06:10:35.564Z,95.30
2018-06-13T06:13:05.409Z,95.00
2018-06-13T06:15:35.460Z,95.50
2018-06-13T06:18:04.857Z,95.40
2018-06-13T06:20:34.627Z,95.40
2018-06-13T06:23:03.954Z,94.20
2018-06-13T06:25:33.284Z,94.00
2018-06-13T06:28:02.675Z,94.10
2018-06-13T06:30:32.743Z,92.90
2018-06-13T06:33:02.574Z,93.00
2018-06-13T06:35:31.802Z,91.70
2018-06-13T06:38:01.729Z,90.90
2018-06-13T06:40:32.312Z,92.00
2018-06-13T06:43:01.542Z,92.00
2018-06-13T06:45:31.559Z,91.70
2018-06-13T06:48:01.621Z,90.20
2018-06-13T06:50:31.549Z,92.40
2018-06-13T06:53:01.523Z,91.00
2018-06-13T06:55:31.618Z,91.80
2018-06-13T06:58:00.917Z,92.30
2018-06-13T07:00:31.362Z,92.40
2018-06-13T07:03:00.798Z,91.50
2018-06-13T07:05:31.342Z,90.80
2018-06-13T07:08:03.251Z,89.60
2018-06-13T07:10:35.742Z,90.00
2018-06-13T07:13:06.549Z,89.20
2018-06-13T07:15:38.284Z,83.50
2018-06-13T07:18:08.834Z,86.90
2018-06-13T07:20:39.141Z,83.80
2018-06-13T07:23:09.365Z,83.10
2018-06-13T07:25:39.675Z,85.20
2018-06-13T07:28:09.764Z,83.80
2018-06-13T07:30:40.117Z,85.00
2018-06-13T07:33:11.144Z,86.70
2018-06-13T07:35:42.253Z,84.10
2018-06-13T07:38:12.638Z,81.60
2018-06-13T07:40:43.602Z,81.70
2018-06-13T07:43:14.881Z,82.30
2018-06-13T07:45:45.431Z,84.50
2018-06-13T07:48:15.634Z,82.50
2018-06-13T07:50:45.740Z,80.20
2018-06-13T07:53:16.832Z,74.90
2018-06-13T07:55:46.750Z,75.30
2018-06-13T07:58:18.821Z,72.20
2018-06-13T08:00:50.291Z,73.20
2018-06-13T08:03:20.215Z,70.90
2018-06-13T08:05:50.915Z,69.50
2018-06-13T08:08:20.414Z,68.80
2018-06-13T08:10:52.021Z,60.60
2018-06-13T08:13:22.573Z,58.00
2018-06-13T08:15:54.693Z,59.30
2018-06-13T08:18:24.911Z,59.10
2018-06-13T08:20:55.654Z,58.90
2018-06-13T08:23:26.796Z,57.80
2018-06-13T08:25:56.445Z,62.20
2018-06-13T08:28:26.859Z,59.90
2018-06-13T08:30:56.998Z,61.30
2018-06-13T08:33:27.968Z,55.90
2018-06-13T08:35:59.292Z,52.40
2018-06-13T08:38:29.494Z,57.10
2018-06-13T08:41:00.562Z,54.30
2018-06-13T08:43:32.354Z,62.50
2018-06-13T08:46:03.004Z,60.90
2018-06-13T08:48:34.228Z,64.10
2018-06-13T08:51:04.944Z,66.90
2018-06-13T08:53:35.360Z,64.10
2018-06-13T08:56:04.960Z,64.40
2018-06-13T08:58:35.120Z,61.00
2018-06-13T09:01:05.207Z,58.00
2018-06-13T09:03:34.565Z,57.00
2018-06-13T09:06:04.660Z,58.30
2018-06-13T09:08:34.149Z,58.20
2018-06-13T09:11:04.233Z,59.80
2018-06-13T09:13:34.953Z,61.30
2018-06-13T09:16:05.723Z,62.60
2018-06-13T09:18:37.052Z,64.10
2018-06-13T09:21:08.048Z,63.70
2018-06-13T09:23:39.191Z,65.60
2018-06-13T09:26:09.624Z,67.60
2018-06-13T09:28:40.008Z,68.60
2018-06-13T09:31:09.990Z,68.30
2018-06-13T09:33:40.905Z,69.10
2018-06-13T09:36:10.512Z,69.60
2018-06-13T09:38:41.379Z,70.50
2018-06-13T09:41:13.444Z,72.70
2018-06-13T09:43:43.576Z,73.60
2018-06-13T09:46:14.582Z,74.30
2018-06-13T09:48:44.961Z,75.90
2018-06-13T09:51:14.193Z,74.90
2018-06-13T09:53:44.205Z,72.90
2018-06-13T09:56:14.045Z,77.20
2018-06-13T09:58:50.043Z,78.90
2018-06-13T10:01:26.006Z,76.20
2018-06-13T10:03:56.795Z,76.80
2018-06-13T10:06:27.565Z,77.10
2018-06-13T10:08:58.084Z,75.00
2018-06-13T10:11:27.468Z,74.90
2018-06-13T10:13:58.012Z,74.20
2018-06-13T10:16:28.001Z,74.00
2018-06-13T10:18:58.375Z,75.40
2018-06-13T10:21:29.520Z,73.10
2018-06-13T10:23:58.801Z,73.10
2018-06-13T10:26:28.769Z,74.10
2018-06-13T10:29:00.070Z,72.50
2018-06-13T10:31:30.049Z,71.20
2018-06-13T10:33:59.980Z,70.50
2018-06-13T10:36:30.052Z,68.60
2018-06-13T10:38:59.316Z,71.40
2018-06-13T10:41:29.399Z,68.00
2018-06-13T10:43:59.321Z,67.50
2018-06-13T10:46:28.805Z,68.60
2018-06-13T10:48:58.715Z,66.20
2018-06-13T10:51:28.564Z,64.00
2018-06-13T10:53:59.085Z,64.50
2018-06-13T10:56:30.660Z,63.80
2018-06-13T10:59:01.225Z,63.50
2018-06-13T11:01:30.991Z,65.70
2018-06-13T11:04:02.453Z,65.80
2018-06-13T11:06:32.880Z,67.90
2018-06-13T11:09:02.676Z,70.10
2018-06-13T11:11:32.625Z,70.90
2018-06-13T11:14:02.494Z,69.60
2018-06-13T11:16:32.504Z,69.70
2018-06-13T11:19:03.019Z,70.80
2018-06-13T11:21:33.093Z,72.60
2018-06-13T11:24:03.464Z,71.90
2018-06-13T11:26:33.317Z,71.80
2018-06-13T11:29:02.980Z,72.00
2018-06-13T11:31:32.247Z,71.10
2018-06-13T11:34:02.478Z,75.50
2018-06-13T11:36:33.332Z,77.20
2018-06-13T11:39:04.928Z,73.40
2018-06-13T11:41:34.618Z,72.90
2018-06-13T11:44:04.620Z,73.60
2018-06-13T11:46:35.444Z,73.40
2018-06-13T11:49:05.426Z,74.10
2018-06-13T11:51:35.181Z,75.10
2018-06-13T11:54:05.210Z,74.30
2018-06-13T11:56:34.318Z,73.20
2018-06-13T11:59:05.354Z,72.40
2018-06-13T12:01:35.492Z,71.80
2018-06-13T12:04:05.420Z,70.10
2018-06-13T12:06:36.169Z,70.40
2018-06-13T12:09:08.372Z,68.20
2018-06-13T12:11:38.544Z,69.90
2018-06-13T12:14:07.699Z,68.70
2018-06-13T12:16:36.833Z,67.50
2018-06-13T12:19:06.972Z,67.60
2018-06-13T12:21:36.301Z,67.50
2018-06-13T12:24:05.516Z,65.10
2018-06-13T12:26:35.957Z,62.00
2018-06-13T12:29:06.964Z,60.60
2018-06-13T12:31:36.490Z,58.50
2018-06-13T12:34:07.144Z,59.90
2018-06-13T12:36:37.288Z,59.40
2018-06-13T12:39:11.000Z,59.70
2018-06-13T12:41:41.551Z,61.00
2018-06-13T12:44:11.449Z,60.70
2018-06-13T12:46:41.532Z,60.80
2018-06-13T12:49:12.045Z,62.00
2018-06-13T12:51:42.186Z,62.30
2018-06-13T12:54:11.585Z,62.50
2018-06-13T12:56:41.347Z,65.40
2018-06-13T12:59:11.467Z,62.20
2018-06-13T13:01:41.558Z,60.90
2018-06-13T13:04:11.525Z,62.00
2018-06-13T13:06:41.272Z,60.10
2018-06-13T13:09:13.500Z,58.00
2018-06-13T13:11:44.031Z,59.70
2018-06-13T13:14:13.862Z,55.80
2018-06-13T13:16:43.897Z,57.10
2018-06-13T13:19:13.802Z,57.50
2018-06-13T13:21:44.384Z,57.00
2018-06-13T13:24:14.365Z,58.40
2018-06-13T13:26:43.469Z,56.10
2018-06-13T13:29:13.365Z,55.80
2018-06-13T13:31:43.277Z,55.60
2018-06-13T13:34:13.687Z,57.20
2018-06-13T13:36:44.124Z,56.80
2018-06-13T13:39:14.731Z,56.80
2018-06-13T13:41:44.897Z,56.50
2018-06-13T13:44:14.100Z,57.70
2018-06-13T13:46:44.052Z,58.90
2018-06-13T13:49:13.999Z,58.00
2018-06-13T13:51:44.225Z,58.90
2018-06-13T13:54:13.561Z,59.80
2018-06-13T13:56:43.120Z,59.50
2018-06-13T13:59:12.796Z,59.10
2018-06-13T14:01:43.065Z,58.60
2018-06-13T14:04:13.173Z,61.40
2018-06-13T14:06:43.315Z,61.00
2018-06-13T14:09:13.544Z,59.60
2018-06-13T14:11:43.412Z,57.90
2018-06-13T14:14:13.291Z,57.30
2018-06-13T14:16:42.460Z,58.60
2018-06-13T14:19:12.190Z,58.70
2018-06-13T14:21:42.588Z,59.40
2018-06-13T14:24:12.520Z,60.80
2018-06-13T14:26:42.881Z,62.80
2018-06-13T14:29:12.801Z,63.30
2018-06-13T14:31:42.771Z,65.50
2018-06-13T14:34:12.398Z,64.80
2018-06-13T14:36:41.954Z,66.40
2018-06-13T14:39:13.637Z,66.60
2018-06-13T14:41:43.812Z,67.50
2018-06-13T14:44:15.150Z,68.70
2018-06-13T14:46:46.200Z,69.50
2018-06-13T14:49:17.586Z,69.10
2018-06-13T14:51:55.029Z,67.90
2018-06-13T14:54:25.308Z,66.40
2018-06-13T14:56:55.496Z,67.90
2018-06-13T14:59:26.394Z,67.50
2018-06-13T15:01:56.898Z,66.30
2018-06-13T15:04:34.777Z,66.00
2018-06-13T15:07:07.043Z,65.10
2018-06-13T15:09:37.337Z,65.80
2018-06-13T15:12:08.466Z,63.60
2018-06-13T15:14:41.511Z,65.00
2018-06-13T15:17:11.852Z,63.90
2018-06-13T15:19:42.988Z,61.80
2018-06-13T15:22:13.682Z,64.20
2018-06-13T15:24:43.584Z,61.90
2018-06-13T15:27:15.292Z,61.20
2018-06-13T15:29:46.078Z,63.50
2018-06-13T15:32:17.449Z,63.40
2018-06-13T15:34:47.608Z,64.60
2018-06-13T15:37:18.731Z,65.60
2018-06-13T15:39:48.113Z,64.90
2018-06-13T15:42:17.232Z,64.20
2018-06-13T15:44:47.074Z,65.40
2018-06-13T15:47:16.352Z,65.10
2018-06-13T15:49:46.668Z,65.00
2018-06-13T15:52:17.004Z,65.00
2018-06-13T15:54:47.048Z,65.40
2018-06-13T15:57:16.174Z,65.80
2018-06-13T15:59:45.372Z,67.10
2018-06-13T16:02:14.530Z,67.10
2018-06-13T16:04:44.937Z,67.30
2018-06-13T16:07:14.740Z,67.30
2018-06-13T16:09:43.863Z,67.00
2018-06-13T16:12:12.993Z,68.90
2018-06-13T16:14:42.455Z,65.80
2018-06-13T16:17:11.697Z,65.80
2018-06-13T16:19:40.889Z,65.20
2018-06-13T16:22:10.268Z,65.30
2018-06-13T16:24:39.428Z,66.50
2018-06-13T16:27:08.541Z,68.30
2018-06-13T16:29:37.688Z,67.70
2018-06-13T16:32:07.360Z,67.80
2018-06-13T16:34:36.440Z,66.30
2018-06-13T16:37:05.525Z,68.30
2018-06-13T16:39:34.735Z,67.40
2018-06-13T16:42:03.800Z,68.20
2018-06-13T16:44:33.848Z,67.30
2018-06-13T16:47:02.928Z,68.10
2018-06-13T16:49:32.036Z,68.00
2018-06-13T16:52:18.596Z,67.60
2018-06-13T16:55:29.737Z,67.60
2018-06-13T16:57:58.784Z,68.80
2018-06-13T17:00:27.872Z,69.40
2018-06-13T17:02:57.873Z,71.60
2018-06-13T17:05:27.765Z,72.30
2018-06-13T17:07:56.884Z,69.10
2018-06-13T17:10:26.517Z,70.00
2018-06-13T17:12:56.272Z,67.50
2018-06-13T17:15:25.439Z,66.60
2018-06-13T17:17:56.952Z,66.70
2018-06-13T17:20:26.863Z,67.50
2018-06-13T17:22:55.993Z,67.40
2018-06-13T17:25:25.162Z,66.30
2018-06-13T17:27:55.257Z,67.00
2018-06-13T17:30:25.136Z,67.30
2018-06-13T17:32:54.240Z,68.60
2018-06-13T17:35:23.337Z,69.10
2018-06-13T17:37:52.400Z,70.50
2018-06-13T17:40:21.496Z,70.00
2018-06-13T17:42:50.696Z,73.20
2018-06-13T17:45:20.599Z,73.70
2018-06-13T17:47:49.704Z,72.40
2018-06-13T17:50:18.828Z,71.40
2018-06-13T17:52:48.128Z,72.20
2018-06-13T17:55:17.196Z,74.10
2018-06-13T17:57:46.412Z,73.10
2018-06-13T18:00:15.488Z,73.10
2018-06-13T18:02:44.584Z,74.00
2018-06-13T18:05:13.785Z,72.80
2018-06-13T18:07:43.471Z,72.70
2018-06-13T18:10:12.619Z,71.40
2018-06-13T18:12:41.785Z,74.00
2018-06-13T18:15:11.125Z,74.50
2018-06-13T18:17:40.280Z,73.80
2018-06-13T18:20:09.426Z,75.40
2018-06-13T18:22:38.808Z,75.30
2018-06-13T18:25:08.466Z,76.40
2018-06-13T18:27:38.320Z,75.20
2018-06-13T18:30:07.529Z,77.60
2018-06-13T18:32:36.584Z,77.80
2018-06-13T18:35:06.025Z,77.80
2018-06-13T18:37:35.130Z,76.70
2018-06-13T18:40:04.559Z,77.10
2018-06-13T18:42:33.681Z,77.20
2018-06-13T18:45:02.808Z,77.10
2018-06-13T18:47:31.964Z,77.30
2018-06-13T18:50:01.113Z,78.00
2018-06-13T18:52:30.458Z,78.30
2018-06-13T18:54:59.580Z,78.80
2018-06-13T18:57:28.735Z,78.60
2018-06-13T18:59:57.856Z,78.30
2018-06-13T19:02:27.001Z,79.90
2018-06-13T19:04:56.200Z,78.90
2018-06-13T19:07:25.343Z,80.50
2018-06-13T19:09:54.484Z,79.90
2018-06-13T19:12:23.760Z,81.00
2018-06-13T19:14:52.827Z,81.40
2018-06-13T19:17:22.161Z,82.70
2018-06-13T19:19:52.280Z,82.80
2018-06-13T19:22:21.453Z,83.60
2018-06-13T19:24:50.542Z,82.30
2018-06-13T19:27:20.409Z,82.70
2018-06-13T19:29:49.521Z,84.30
2018-06-13T19:32:18.601Z,83.00
2018-06-13T19:34:47.714Z,86.30
2018-06-13T19:37:16.780Z,86.70
2018-06-13T19:39:46.880Z,87.80
2018-06-13T19:42:15.973Z,89.10
2018-06-13T19:44:45.823Z,90.60
2018-06-13T19:47:20.059Z,91.30
2018-06-13T19:49:49.735Z,91.70
2018-06-13T19:52:18.828Z,91.70
2018-06-13T19:54:53.280Z,91.40
2018-06-13T19:57:23.292Z,91.20
2018-06-13T19:59:52.373Z,92.90
2018-06-13T20:02:21.540Z,93.30
2018-06-13T20:04:56.574Z,93.30
2018-06-13T20:07:25.668Z,93.90
2018-06-13T20:09:54.753Z,93.90
2018-06-13T20:12:48.528Z,94.00
2018-06-13T20:15:22.792Z,93.90
2018-06-13T20:17:57.461Z,94.40
2018-06-13T20:20:26.584Z,94.70
2018-06-13T20:22:55.777Z,94.30
2018-06-13T20:25:30.328Z,95.00
2018-06-13T20:28:04.802Z,94.90
2018-06-13T20:30:39.460Z,95.20
2018-06-13T20:33:09.360Z,95.70
2018-06-13T20:35:38.486Z,95.80
2018-06-13T20:38:07.580Z,95.80
2018-06-13T20:40:36.932Z,96.40
2018-06-13T20:43:06.704Z,96.50
2018-06-13T20:45:35.793Z,96.10
2018-06-13T20:48:05.904Z,96.20
2018-06-13T20:50:35.005Z,95.90
2018-06-13T20:53:04.720Z,96.20
2018-06-13T20:55:34.625Z,96.40
2018-06-13T20:58:04.500Z,96.20
2018-06-13T21:00:33.609Z,95.90
2018-06-13T21:03:02.745Z,96.00
2018-06-13T21:05:31.820Z,95.50
2018-06-13T21:08:00.976Z,96.10
2018-06-13T21:10:30.145Z,96.20
2018-06-13T21:12:59.241Z,96.00
2018-06-13T21:15:28.360Z,96.20
2018-06-13T21:17:57.482Z,96.60
2018-06-13T21:20:27.490Z,96.70
2018-06-13T21:22:56.500Z,97.00
2018-06-13T21:25:26.200Z,97.10
2018-06-13T21:27:55.328Z,97.30
2018-06-13T21:30:24.426Z,97.10
2018-06-13T21:32:53.820Z,96.80
2018-06-13T21:35:22.924Z,96.90
2018-06-13T21:37:52.793Z,97.20
2018-06-13T21:40:21.901Z,97.50
2018-06-13T21:42:50.997Z,97.40
2018-06-13T21:45:20.144Z,97.20
2018-06-13T21:47:49.291Z,97.00
2018-06-13T21:50:18.500Z,96.90
2018-06-13T21:52:47.891Z,96.90
2018-06-13T21:55:17.031Z,96.80
2018-06-13T21:57:46.796Z,96.80
2018-06-13T22:00:15.923Z,96.80
2018-06-13T22:02:45.033Z,96.70
2018-06-13T22:05:14.341Z,97.10
2018-06-13T22:07:43.484Z,97.20
2018-06-13T22:10:12.658Z,97.60
2018-06-13T22:12:41.776Z,97.70
2018-06-13T22:15:15.925Z,98.00
2018-06-13T22:17:45.182Z,97.80
2018-06-13T22:20:14.390Z,97.70
2018-06-13T22:22:43.484Z,97.80
2018-06-13T22:25:12.612Z,98.10
2018-06-13T22:27:41.708Z,97.50
2018-06-13T22:30:11.052Z,97.60
2018-06-13T22:32:40.584Z,97.70
2018-06-13T22:35:09.708Z,97.20
2018-06-13T22:37:39.878Z,97.30
2018-06-13T22:40:09.394Z,97.70
2018-06-13T22:42:38.516Z,98.00
2018-06-13T22:45:07.831Z,98.00
2018-06-13T22:47:36.897Z,98.10
2018-06-13T22:50:05.991Z,98.30
2018-06-13T22:52:35.076Z,97.90
2018-06-13T22:55:04.416Z,98.30
2018-06-13T22:57:33.584Z,98.00
2018-06-13T23:00:02.875Z,98.00
2018-06-13T23:02:31.980Z,98.00
2018-06-13T23:05:01.104Z,98.00
2018-06-13T23:07:30.172Z,98.00
2018-06-13T23:09:59.704Z,98.10
2018-06-13T23:12:28.853Z,98.20
2018-06-13T23:14:57.973Z,98.40
2018-06-13T23:17:27.096Z,98.70
2018-06-13T23:19:56.192Z,98.50
2018-06-13T23:22:25.348Z,98.50
2018-06-13T23:24:54.634Z,98.40
2018-06-13T23:27:23.782Z,98.40
2018-06-13T23:29:52.878Z,98.60
2018-06-13T23:32:22.050Z,98.30
2018-06-13T23:34:51.160Z,98.40
2018-06-13T23:37:20.228Z,98.30
2018-06-13T23:39:49.560Z,98.60
2018-06-13T23:42:18.671Z,98.70
2018-06-13T23:44:47.716Z,99.20
2018-06-13T23:47:17.349Z,99.10
2018-06-13T23:49:46.480Z,99.20
2018-06-13T23:52:15.557Z,99.10
2018-06-13T23:54:44.713Z,99.00
2018-06-13T23:57:13.808Z,99.10
2018-06-13T23:59:43.049Z,99.00
